sensor_id;sensor_type;location;lat;lon;timestamp;P1;durP1;ratioP1;P2;durP2;ratioP2
16352;SDS011;8286;51.274;9.542;2024-01-30T00:01:52;12.67;;;8.23;;
16352;SDS011;8286;51.274;9.542;2024-01-30T00:04:18;15.07;;;8.37;;
16352;SDS011;8286;51.274;9.542;2024-01-30T00:06:44;16.03;;;9.00;;
16352;SDS011;8286;51.274;9.542;2024-01-30T00:09:12;16.63;;;9.33;;
16352;SDS011;8286;51.274;9.542;2024-01-30T00:11:38;14.77;;;8.33;;
16352;SDS011;8286;51.274;9.542;2024-01-30T00:14:05;13.17;;;7.80;;
16352;SDS011;8286;51.274;9.542;2024-01-30T00:16:32;12.97;;;7.40;;
16352;SDS011;8286;51.274;9.542;2024-01-30T00:18:59;10.70;;;7.07;;
16352;SDS011;8286;51.274;9.542;2024-01-30T00:21:27;13.97;;;7.80;;
16352;SDS011;8286;51.274;9.542;2024-01-30T00:23:53;14.37;;;7.80;;
16352;SDS011;8286;51.274;9.542;2024-01-30T00:26:21;11.03;;;7.20;;
16352;SDS011;8286;51.274;9.542;2024-01-30T00:28:48;14.07;;;6.87;;
16352;SDS011;8286;51.274;9.542;2024-01-30T00:31:14;14.10;;;7.73;;
16352;SDS011;8286;51.274;9.542;2024-01-30T00:33:41;11.63;;;7.33;;
16352;SDS011;8286;51.274;9.542;2024-01-30T00:36:08;10.33;;;7.60;;
16352;SDS011;8286;51.274;9.542;2024-01-30T00:38:35;11.87;;;6.67;;
16352;SDS011;8286;51.274;9.542;2024-01-30T00:41:02;10.50;;;7.23;;
16352;SDS011;8286;51.274;9.542;2024-01-30T00:43:30;13.03;;;6.93;;
16352;SDS011;8286;51.274;9.542;2024-01-30T00:45:57;12.13;;;7.30;;
16352;SDS011;8286;51.274;9.542;2024-01-30T00:48:24;12.77;;;6.93;;
16352;SDS011;8286;51.274;9.542;2024-01-30T00:50:50;12.13;;;6.80;;
16352;SDS011;8286;51.274;9.542;2024-01-30T00:53:17;9.70;;;6.37;;
16352;SDS011;8286;51.274;9.542;2024-01-30T00:55:43;11.87;;;7.13;;
16352;SDS011;8286;51.274;9.542;2024-01-30T00:58:10;10.63;;;6.13;;
16352;SDS011;8286;51.274;9.542;2024-01-30T01:00:38;9.77;;;6.10;;
16352;SDS011;8286;51.274;9.542;2024-01-30T01:03:04;11.23;;;6.57;;
16352;SDS011;8286;51.274;9.542;2024-01-30T01:05:31;12.63;;;6.07;;
16352;SDS011;8286;51.274;9.542;2024-01-30T01:07:58;10.63;;;7.03;;
16352;SDS011;8286;51.274;9.542;2024-01-30T01:10:24;14.57;;;7.10;;
16352;SDS011;8286;51.274;9.542;2024-01-30T01:12:51;13.43;;;6.97;;
16352;SDS011;8286;51.274;9.542;2024-01-30T01:15:17;9.57;;;5.83;;
16352;SDS011;8286;51.274;9.542;2024-01-30T01:17:45;13.77;;;6.53;;
16352;SDS011;8286;51.274;9.542;2024-01-30T01:20:12;12.43;;;6.90;;
16352;SDS011;8286;51.274;9.542;2024-01-30T01:22:38;8.10;;;6.30;;
16352;SDS011;8286;51.274;9.542;2024-01-30T01:25:05;9.00;;;6.13;;
16352;SDS011;8286;51.274;9.542;2024-01-30T01:27:33;9.83;;;6.37;;
16352;SDS011;8286;51.274;9.542;2024-01-30T01:30:05;12.43;;;6.47;;
16352;SDS011;8286;51.274;9.542;2024-01-30T01:32:34;8.57;;;6.07;;
16352;SDS011;8286;51.274;9.542;2024-01-30T01:35:02;11.47;;;6.80;;
16352;SDS011;8286;51.274;9.542;2024-01-30T01:37:30;11.33;;;6.37;;
16352;SDS011;8286;51.274;9.542;2024-01-30T01:39:57;10.27;;;6.43;;
16352;SDS011;8286;51.274;9.542;2024-01-30T01:42:23;9.23;;;6.17;;
16352;SDS011;8286;51.274;9.542;2024-01-30T01:44:50;9.80;;;5.93;;
16352;SDS011;8286;51.274;9.542;2024-01-30T01:47:16;10.17;;;5.97;;
16352;SDS011;8286;51.274;9.542;2024-01-30T01:49:43;10.97;;;6.13;;
16352;SDS011;8286;51.274;9.542;2024-01-30T01:52:11;9.77;;;6.53;;
16352;SDS011;8286;51.274;9.542;2024-01-30T01:54:37;9.27;;;5.77;;
16352;SDS011;8286;51.274;9.542;2024-01-30T01:57:04;8.80;;;5.37;;
16352;SDS011;8286;51.274;9.542;2024-01-30T01:59:31;10.10;;;5.60;;
16352;SDS011;8286;51.274;9.542;2024-01-30T02:01:57;12.23;;;6.80;;
16352;SDS011;8286;51.274;9.542;2024-01-30T02:04:24;7.70;;;5.70;;
16352;SDS011;8286;51.274;9.542;2024-01-30T02:06:51;8.67;;;5.47;;
16352;SDS011;8286;51.274;9.542;2024-01-30T02:09:19;8.57;;;5.33;;
16352;SDS011;8286;51.274;9.542;2024-01-30T02:11:45;10.67;;;5.87;;
16352;SDS011;8286;51.274;9.542;2024-01-30T02:14:12;10.17;;;5.97;;
16352;SDS011;8286;51.274;9.542;2024-01-30T02:16:38;8.17;;;5.50;;
16352;SDS011;8286;51.274;9.542;2024-01-30T02:19:05;7.23;;;5.17;;
16352;SDS011;8286;51.274;9.542;2024-01-30T02:21:34;8.80;;;5.47;;
16352;SDS011;8286;51.274;9.542;2024-01-30T02:24:00;9.77;;;5.43;;
16352;SDS011;8286;51.274;9.542;2024-01-30T02:26:27;8.63;;;5.10;;
16352;SDS011;8286;51.274;9.542;2024-01-30T02:28:54;8.70;;;4.67;;
16352;SDS011;8286;51.274;9.542;2024-01-30T02:31:20;11.50;;;5.13;;
16352;SDS011;8286;51.274;9.542;2024-01-30T02:33:47;9.87;;;5.63;;
16352;SDS011;8286;51.274;9.542;2024-01-30T02:36:13;7.57;;;5.20;;
16352;SDS011;8286;51.274;9.542;2024-01-30T02:38:42;6.57;;;4.73;;
16352;SDS011;8286;51.274;9.542;2024-01-30T02:41:08;7.60;;;4.73;;
16352;SDS011;8286;51.274;9.542;2024-01-30T02:43:35;9.80;;;5.63;;
16352;SDS011;8286;51.274;9.542;2024-01-30T02:46:01;8.87;;;5.17;;
16352;SDS011;8286;51.274;9.542;2024-01-30T02:48:28;9.73;;;4.93;;
16352;SDS011;8286;51.274;9.542;2024-01-30T02:50:54;6.27;;;4.87;;
16352;SDS011;8286;51.274;9.542;2024-01-30T02:53:21;5.70;;;4.20;;
16352;SDS011;8286;51.274;9.542;2024-01-30T02:55:49;8.60;;;5.23;;
16352;SDS011;8286;51.274;9.542;2024-01-30T02:58:16;8.53;;;4.77;;
16352;SDS011;8286;51.274;9.542;2024-01-30T03:00:42;5.77;;;4.80;;
16352;SDS011;8286;51.274;9.542;2024-01-30T03:03:09;10.33;;;6.00;;
16352;SDS011;8286;51.274;9.542;2024-01-30T03:05:36;7.87;;;4.83;;
16352;SDS011;8286;51.274;9.542;2024-01-30T03:08:03;8.13;;;5.30;;
16352;SDS011;8286;51.274;9.542;2024-01-30T03:10:30;8.17;;;5.17;;
16352;SDS011;8286;51.274;9.542;2024-01-30T03:12:58;7.20;;;5.40;;
16352;SDS011;8286;51.274;9.542;2024-01-30T03:15:25;6.67;;;5.10;;
16352;SDS011;8286;51.274;9.542;2024-01-30T03:17:52;8.47;;;5.07;;
16352;SDS011;8286;51.274;9.542;2024-01-30T03:20:19;8.23;;;4.57;;
16352;SDS011;8286;51.274;9.542;2024-01-30T03:22:45;9.37;;;6.30;;
16352;SDS011;8286;51.274;9.542;2024-01-30T03:25:12;8.57;;;4.57;;
16352;SDS011;8286;51.274;9.542;2024-01-30T03:27:39;6.47;;;4.70;;
16352;SDS011;8286;51.274;9.542;2024-01-30T03:30:07;9.13;;;5.70;;
16352;SDS011;8286;51.274;9.542;2024-01-30T03:32:34;6.10;;;4.73;;
16352;SDS011;8286;51.274;9.542;2024-01-30T03:35:01;6.50;;;4.73;;
16352;SDS011;8286;51.274;9.542;2024-01-30T03:37:27;7.13;;;4.90;;
16352;SDS011;8286;51.274;9.542;2024-01-30T03:39:54;9.10;;;4.73;;
16352;SDS011;8286;51.274;9.542;2024-01-30T03:42:20;7.13;;;4.90;;
16352;SDS011;8286;51.274;9.542;2024-01-30T03:44:48;7.30;;;4.67;;
16352;SDS011;8286;51.274;9.542;2024-01-30T03:47:18;8.03;;;5.30;;
16352;SDS011;8286;51.274;9.542;2024-01-30T03:49:44;9.13;;;5.13;;
16352;SDS011;8286;51.274;9.542;2024-01-30T03:52:11;7.47;;;4.63;;
16352;SDS011;8286;51.274;9.542;2024-01-30T03:54:37;6.60;;;5.20;;
16352;SDS011;8286;51.274;9.542;2024-01-30T03:57:04;5.60;;;4.70;;
16352;SDS011;8286;51.274;9.542;2024-01-30T03:59:31;6.77;;;4.70;;
16352;SDS011;8286;51.274;9.542;2024-01-30T04:01:57;7.33;;;5.23;;
16352;SDS011;8286;51.274;9.542;2024-01-30T04:04:26;5.57;;;4.47;;
16352;SDS011;8286;51.274;9.542;2024-01-30T04:06:52;7.03;;;5.20;;
16352;SDS011;8286;51.274;9.542;2024-01-30T04:09:19;7.37;;;5.03;;
16352;SDS011;8286;51.274;9.542;2024-01-30T04:11:45;9.80;;;5.30;;
16352;SDS011;8286;51.274;9.542;2024-01-30T04:14:12;8.63;;;4.93;;
16352;SDS011;8286;51.274;9.542;2024-01-30T04:16:38;9.90;;;5.33;;
16352;SDS011;8286;51.274;9.542;2024-01-30T04:19:05;11.50;;;4.90;;
16352;SDS011;8286;51.274;9.542;2024-01-30T04:21:33;9.90;;;4.80;;
16352;SDS011;8286;51.274;9.542;2024-01-30T04:23:59;7.63;;;4.70;;
16352;SDS011;8286;51.274;9.542;2024-01-30T04:26:26;5.70;;;4.43;;
16352;SDS011;8286;51.274;9.542;2024-01-30T04:28:52;7.70;;;5.60;;
16352;SDS011;8286;51.274;9.542;2024-01-30T04:31:19;11.13;;;5.97;;
16352;SDS011;8286;51.274;9.542;2024-01-30T04:33:45;7.47;;;4.57;;
16352;SDS011;8286;51.274;9.542;2024-01-30T04:36:12;7.73;;;4.90;;
16352;SDS011;8286;51.274;9.542;2024-01-30T04:38:40;5.90;;;4.40;;
16352;SDS011;8286;51.274;9.542;2024-01-30T04:41:06;9.17;;;5.13;;
16352;SDS011;8286;51.274;9.542;2024-01-30T04:43:33;7.17;;;4.47;;
16352;SDS011;8286;51.274;9.542;2024-01-30T04:45:59;5.97;;;4.33;;
16352;SDS011;8286;51.274;9.542;2024-01-30T04:48:26;10.77;;;5.23;;
16352;SDS011;8286;51.274;9.542;2024-01-30T04:50:53;6.73;;;4.53;;
16352;SDS011;8286;51.274;9.542;2024-01-30T04:53:21;6.60;;;4.87;;
16352;SDS011;8286;51.274;9.542;2024-01-30T04:55:49;8.90;;;5.07;;
16352;SDS011;8286;51.274;9.542;2024-01-30T04:58:15;8.50;;;4.63;;
16352;SDS011;8286;51.274;9.542;2024-01-30T05:00:42;8.93;;;5.13;;
16352;SDS011;8286;51.274;9.542;2024-01-30T05:03:08;6.23;;;5.00;;
16352;SDS011;8286;51.274;9.542;2024-01-30T05:05:35;7.30;;;4.77;;
16352;SDS011;8286;51.274;9.542;2024-01-30T05:08:01;9.10;;;4.80;;
16352;SDS011;8286;51.274;9.542;2024-01-30T05:10:28;7.93;;;4.87;;
16352;SDS011;8286;51.274;9.542;2024-01-30T05:12:56;7.40;;;4.80;;
16352;SDS011;8286;51.274;9.542;2024-01-30T05:15:22;10.27;;;5.07;;
16352;SDS011;8286;51.274;9.542;2024-01-30T05:17:49;5.57;;;4.73;;
16352;SDS011;8286;51.274;9.542;2024-01-30T05:20:16;10.87;;;5.87;;
16352;SDS011;8286;51.274;9.542;2024-01-30T05:22:42;6.57;;;4.80;;
16352;SDS011;8286;51.274;9.542;2024-01-30T05:25:10;7.57;;;5.53;;
16352;SDS011;8286;51.274;9.542;2024-01-30T05:27:37;6.90;;;4.80;;
16352;SDS011;8286;51.274;9.542;2024-01-30T05:30:05;8.67;;;4.93;;
16352;SDS011;8286;51.274;9.542;2024-01-30T05:32:32;8.73;;;5.37;;
16352;SDS011;8286;51.274;9.542;2024-01-30T05:34:59;8.03;;;5.13;;
16352;SDS011;8286;51.274;9.542;2024-01-30T05:37:25;7.33;;;5.33;;
16352;SDS011;8286;51.274;9.542;2024-01-30T05:39:52;10.83;;;5.43;;
16352;SDS011;8286;51.274;9.542;2024-01-30T05:42:18;8.93;;;5.80;;
16352;SDS011;8286;51.274;9.542;2024-01-30T05:44:45;8.23;;;5.93;;
16352;SDS011;8286;51.274;9.542;2024-01-30T05:47:13;10.53;;;5.70;;
16352;SDS011;8286;51.274;9.542;2024-01-30T05:49:40;10.13;;;5.80;;
16352;SDS011;8286;51.274;9.542;2024-01-30T05:52:07;7.83;;;5.10;;
16352;SDS011;8286;51.274;9.542;2024-01-30T05:54:33;10.30;;;5.40;;
16352;SDS011;8286;51.274;9.542;2024-01-30T05:57:00;10.13;;;5.90;;
16352;SDS011;8286;51.274;9.542;2024-01-30T05:59:26;10.73;;;6.27;;
16352;SDS011;8286;51.274;9.542;2024-01-30T06:01:53;9.47;;;5.53;;
16352;SDS011;8286;51.274;9.542;2024-01-30T06:04:21;7.90;;;5.50;;
16352;SDS011;8286;51.274;9.542;2024-01-30T06:06:47;7.80;;;5.60;;
16352;SDS011;8286;51.274;9.542;2024-01-30T06:09:14;9.67;;;6.10;;
16352;SDS011;8286;51.274;9.542;2024-01-30T06:11:40;9.17;;;6.40;;
16352;SDS011;8286;51.274;9.542;2024-01-30T06:14:07;8.03;;;6.03;;
16352;SDS011;8286;51.274;9.542;2024-01-30T06:16:33;7.90;;;5.47;;
16352;SDS011;8286;51.274;9.542;2024-01-30T06:22:23;9.90;;;6.00;;
16352;SDS011;8286;51.274;9.542;2024-01-30T06:24:49;9.47;;;5.87;;
16352;SDS011;8286;51.274;9.542;2024-01-30T06:27:16;9.50;;;5.60;;
16352;SDS011;8286;51.274;9.542;2024-01-30T06:29:43;14.17;;;7.53;;
16352;SDS011;8286;51.274;9.542;2024-01-30T06:32:09;10.10;;;6.27;;
16352;SDS011;8286;51.274;9.542;2024-01-30T06:34:36;12.00;;;6.23;;
16352;SDS011;8286;51.274;9.542;2024-01-30T06:37:03;10.20;;;6.10;;
16352;SDS011;8286;51.274;9.542;2024-01-30T06:39:31;11.47;;;6.20;;
16352;SDS011;8286;51.274;9.542;2024-01-30T06:41:58;9.97;;;5.50;;
16352;SDS011;8286;51.274;9.542;2024-01-30T06:44:24;9.40;;;6.37;;
16352;SDS011;8286;51.274;9.542;2024-01-30T06:46:51;11.17;;;6.03;;
16352;SDS011;8286;51.274;9.542;2024-01-30T06:49:17;8.10;;;5.77;;
16352;SDS011;8286;51.274;9.542;2024-01-30T06:51:44;9.40;;;6.23;;
16352;SDS011;8286;51.274;9.542;2024-01-30T06:54:10;10.23;;;6.27;;
16352;SDS011;8286;51.274;9.542;2024-01-30T06:56:38;14.17;;;7.47;;
16352;SDS011;8286;51.274;9.542;2024-01-30T06:59:04;9.13;;;6.37;;
16352;SDS011;8286;51.274;9.542;2024-01-30T07:01:31;36.27;;;8.67;;
16352;SDS011;8286;51.274;9.542;2024-01-30T07:03:57;21.87;;;8.23;;
16352;SDS011;8286;51.274;9.542;2024-01-30T07:06:24;19.77;;;8.47;;
16352;SDS011;8286;51.274;9.542;2024-01-30T07:08:50;39.83;;;8.17;;
16352;SDS011;8286;51.274;9.542;2024-01-30T07:11:18;11.37;;;6.13;;
16352;SDS011;8286;51.274;9.542;2024-01-30T07:13:46;16.03;;;7.00;;
16352;SDS011;8286;51.274;9.542;2024-01-30T07:16:13;16.10;;;7.37;;
16352;SDS011;8286;51.274;9.542;2024-01-30T07:18:39;18.57;;;7.33;;
16352;SDS011;8286;51.274;9.542;2024-01-30T07:21:06;13.13;;;6.70;;
16352;SDS011;8286;51.274;9.542;2024-01-30T07:23:32;11.80;;;6.13;;
16352;SDS011;8286;51.274;9.542;2024-01-30T07:25:59;12.80;;;6.57;;
16352;SDS011;8286;51.274;9.542;2024-01-30T07:28:26;13.77;;;6.47;;
16352;SDS011;8286;51.274;9.542;2024-01-30T07:30:54;14.30;;;6.70;;
16352;SDS011;8286;51.274;9.542;2024-01-30T07:33:20;16.80;;;7.60;;
16352;SDS011;8286;51.274;9.542;2024-01-30T07:35:47;18.20;;;7.37;;
16352;SDS011;8286;51.274;9.542;2024-01-30T07:38:13;16.00;;;6.90;;
16352;SDS011;8286;51.274;9.542;2024-01-30T07:40:40;17.53;;;8.70;;
16352;SDS011;8286;51.274;9.542;2024-01-30T07:43:06;18.83;;;8.70;;
16352;SDS011;8286;51.274;9.542;2024-01-30T07:45:33;19.20;;;8.70;;
16352;SDS011;8286;51.274;9.542;2024-01-30T07:48:01;16.27;;;8.43;;
16352;SDS011;8286;51.274;9.542;2024-01-30T07:50:27;13.40;;;7.30;;
16352;SDS011;8286;51.274;9.542;2024-01-30T07:52:55;18.67;;;7.53;;
16352;SDS011;8286;51.274;9.542;2024-01-30T07:55:22;12.87;;;7.30;;
16352;SDS011;8286;51.274;9.542;2024-01-30T07:57:49;15.43;;;7.37;;
16352;SDS011;8286;51.274;9.542;2024-01-30T08:00:16;14.17;;;6.60;;
16352;SDS011;8286;51.274;9.542;2024-01-30T08:02:43;9.97;;;6.17;;
16352;SDS011;8286;51.274;9.542;2024-01-30T08:05:11;8.53;;;6.63;;
16352;SDS011;8286;51.274;9.542;2024-01-30T08:07:40;10.77;;;6.97;;
16352;SDS011;8286;51.274;9.542;2024-01-30T08:10:07;9.67;;;6.27;;
16352;SDS011;8286;51.274;9.542;2024-01-30T08:12:33;13.03;;;6.80;;
16352;SDS011;8286;51.274;9.542;2024-01-30T08:15:00;10.03;;;6.73;;
16352;SDS011;8286;51.274;9.542;2024-01-30T08:17:26;14.93;;;7.33;;
16352;SDS011;8286;51.274;9.542;2024-01-30T08:19:53;9.23;;;6.87;;
16352;SDS011;8286;51.274;9.542;2024-01-30T08:22:21;13.73;;;6.60;;
16352;SDS011;8286;51.274;9.542;2024-01-30T08:24:47;12.00;;;6.63;;
16352;SDS011;8286;51.274;9.542;2024-01-30T08:27:14;11.30;;;7.03;;
16352;SDS011;8286;51.274;9.542;2024-01-30T08:29:40;10.30;;;6.53;;
16352;SDS011;8286;51.274;9.542;2024-01-30T08:32:07;13.53;;;7.07;;
16352;SDS011;8286;51.274;9.542;2024-01-30T08:34:33;13.43;;;7.07;;
16352;SDS011;8286;51.274;9.542;2024-01-30T08:37:00;12.97;;;6.67;;
16352;SDS011;8286;51.274;9.542;2024-01-30T08:39:27;15.10;;;7.73;;
16352;SDS011;8286;51.274;9.542;2024-01-30T08:41:54;10.77;;;6.83;;
16352;SDS011;8286;51.274;9.542;2024-01-30T08:44:24;21.97;;;8.40;;
16352;SDS011;8286;51.274;9.542;2024-01-30T08:46:55;15.73;;;7.17;;
16352;SDS011;8286;51.274;9.542;2024-01-30T08:49:22;10.33;;;7.83;;
16352;SDS011;8286;51.274;9.542;2024-01-30T08:51:56;13.13;;;8.40;;
16352;SDS011;8286;51.274;9.542;2024-01-30T08:54:28;13.13;;;7.60;;
16352;SDS011;8286;51.274;9.542;2024-01-30T08:56:57;13.10;;;8.10;;
16352;SDS011;8286;51.274;9.542;2024-01-30T08:59:26;12.00;;;7.37;;
16352;SDS011;8286;51.274;9.542;2024-01-30T09:01:54;11.07;;;7.77;;
16352;SDS011;8286;51.274;9.542;2024-01-30T09:04:24;11.53;;;7.20;;
16352;SDS011;8286;51.274;9.542;2024-01-30T09:06:50;10.50;;;6.87;;
16352;SDS011;8286;51.274;9.542;2024-01-30T09:09:17;10.13;;;7.03;;
16352;SDS011;8286;51.274;9.542;2024-01-30T09:11:45;12.50;;;7.27;;
16352;SDS011;8286;51.274;9.542;2024-01-30T09:14:12;12.40;;;7.00;;
16352;SDS011;8286;51.274;9.542;2024-01-30T09:16:38;12.03;;;7.83;;
16352;SDS011;8286;51.274;9.542;2024-01-30T09:19:05;11.67;;;6.97;;
16352;SDS011;8286;51.274;9.542;2024-01-30T09:21:31;11.00;;;7.47;;
16352;SDS011;8286;51.274;9.542;2024-01-30T09:24:01;10.23;;;6.93;;
16352;SDS011;8286;51.274;9.542;2024-01-30T09:26:28;10.47;;;6.50;;
16352;SDS011;8286;51.274;9.542;2024-01-30T09:28:56;9.73;;;6.43;;
16352;SDS011;8286;51.274;9.542;2024-01-30T09:31:23;13.30;;;6.70;;
16352;SDS011;8286;51.274;9.542;2024-01-30T09:33:49;12.27;;;7.37;;
16352;SDS011;8286;51.274;9.542;2024-01-30T09:36:16;12.37;;;6.67;;
16352;SDS011;8286;51.274;9.542;2024-01-30T09:38:44;12.80;;;7.83;;
16352;SDS011;8286;51.274;9.542;2024-01-30T09:41:11;11.27;;;7.97;;
16352;SDS011;8286;51.274;9.542;2024-01-30T09:43:38;11.93;;;7.30;;
16352;SDS011;8286;51.274;9.542;2024-01-30T09:46:06;18.33;;;9.20;;
16352;SDS011;8286;51.274;9.542;2024-01-30T09:48:34;16.50;;;8.87;;
16352;SDS011;8286;51.274;9.542;2024-01-30T09:51:01;15.07;;;7.93;;
16352;SDS011;8286;51.274;9.542;2024-01-30T09:53:28;14.63;;;7.40;;
16352;SDS011;8286;51.274;9.542;2024-01-30T09:55:54;11.47;;;7.23;;
16352;SDS011;8286;51.274;9.542;2024-01-30T09:58:21;9.47;;;6.97;;
16352;SDS011;8286;51.274;9.542;2024-01-30T10:00:48;10.07;;;6.87;;
16352;SDS011;8286;51.274;9.542;2024-01-30T10:03:15;8.63;;;6.30;;
16352;SDS011;8286;51.274;9.542;2024-01-30T10:05:44;9.73;;;6.50;;
16352;SDS011;8286;51.274;9.542;2024-01-30T10:08:17;11.83;;;6.70;;
16352;SDS011;8286;51.274;9.542;2024-01-30T10:10:45;10.73;;;6.40;;
16352;SDS011;8286;51.274;9.542;2024-01-30T10:13:11;10.20;;;6.07;;
16352;SDS011;8286;51.274;9.542;2024-01-30T10:15:38;12.73;;;6.90;;
16352;SDS011;8286;51.274;9.542;2024-01-30T10:18:05;10.27;;;7.33;;
16352;SDS011;8286;51.274;9.542;2024-01-30T10:20:33;9.23;;;6.10;;
16352;SDS011;8286;51.274;9.542;2024-01-30T10:23:00;12.80;;;6.73;;
16352;SDS011;8286;51.274;9.542;2024-01-30T10:25:26;11.63;;;5.83;;
16352;SDS011;8286;51.274;9.542;2024-01-30T10:27:53;15.40;;;7.20;;
16352;SDS011;8286;51.274;9.542;2024-01-30T10:30:20;11.97;;;6.50;;
16352;SDS011;8286;51.274;9.542;2024-01-30T10:32:47;10.13;;;6.63;;
16352;SDS011;8286;51.274;9.542;2024-01-30T10:35:13;13.60;;;7.80;;
16352;SDS011;8286;51.274;9.542;2024-01-30T10:37:41;10.63;;;6.60;;
16352;SDS011;8286;51.274;9.542;2024-01-30T10:40:11;9.40;;;6.70;;
16352;SDS011;8286;51.274;9.542;2024-01-30T10:42:40;10.40;;;6.83;;
16352;SDS011;8286;51.274;9.542;2024-01-30T10:45:09;10.00;;;7.13;;
16352;SDS011;8286;51.274;9.542;2024-01-30T10:47:37;9.90;;;6.00;;
16352;SDS011;8286;51.274;9.542;2024-01-30T10:50:06;12.83;;;6.53;;
16352;SDS011;8286;51.274;9.542;2024-01-30T10:52:34;10.13;;;6.13;;
16352;SDS011;8286;51.274;9.542;2024-01-30T10:55:02;8.67;;;6.07;;
16352;SDS011;8286;51.274;9.542;2024-01-30T10:57:31;9.20;;;6.50;;
16352;SDS011;8286;51.274;9.542;2024-01-30T11:00:00;8.53;;;5.57;;
16352;SDS011;8286;51.274;9.542;2024-01-30T11:02:30;10.27;;;6.10;;
16352;SDS011;8286;51.274;9.542;2024-01-30T11:04:58;11.13;;;6.83;;
16352;SDS011;8286;51.274;9.542;2024-01-30T11:07:26;9.87;;;6.60;;
16352;SDS011;8286;51.274;9.542;2024-01-30T11:09:53;9.80;;;6.93;;
16352;SDS011;8286;51.274;9.542;2024-01-30T11:12:24;9.37;;;6.90;;
16352;SDS011;8286;51.274;9.542;2024-01-30T11:15:01;9.27;;;6.60;;
16352;SDS011;8286;51.274;9.542;2024-01-30T11:17:39;8.20;;;6.63;;
16352;SDS011;8286;51.274;9.542;2024-01-30T11:20:09;12.50;;;6.57;;
16352;SDS011;8286;51.274;9.542;2024-01-30T11:22:36;10.60;;;6.40;;
16352;SDS011;8286;51.274;9.542;2024-01-30T11:25:03;8.40;;;6.43;;
16352;SDS011;8286;51.274;9.542;2024-01-30T11:27:31;11.03;;;6.87;;
16352;SDS011;8286;51.274;9.542;2024-01-30T11:30:00;10.47;;;6.67;;
16352;SDS011;8286;51.274;9.542;2024-01-30T11:32:27;16.40;;;7.30;;
16352;SDS011;8286;51.274;9.542;2024-01-30T11:34:54;9.53;;;6.63;;
16352;SDS011;8286;51.274;9.542;2024-01-30T11:37:20;11.03;;;6.60;;
16352;SDS011;8286;51.274;9.542;2024-01-30T11:39:48;9.17;;;6.57;;
16352;SDS011;8286;51.274;9.542;2024-01-30T11:42:14;13.40;;;7.77;;
16352;SDS011;8286;51.274;9.542;2024-01-30T11:44:47;10.07;;;6.40;;
16352;SDS011;8286;51.274;9.542;2024-01-30T11:47:13;10.37;;;6.40;;
16352;SDS011;8286;51.274;9.542;2024-01-30T11:49:40;14.23;;;6.70;;
16352;SDS011;8286;51.274;9.542;2024-01-30T11:52:07;9.97;;;6.67;;
16352;SDS011;8286;51.274;9.542;2024-01-30T11:54:34;12.53;;;7.20;;
16352;SDS011;8286;51.274;9.542;2024-01-30T11:57:00;9.17;;;7.10;;
16352;SDS011;8286;51.274;9.542;2024-01-30T11:59:27;12.43;;;7.10;;
16352;SDS011;8286;51.274;9.542;2024-01-30T12:01:55;8.00;;;6.33;;
16352;SDS011;8286;51.274;9.542;2024-01-30T12:04:21;10.20;;;6.77;;
16352;SDS011;8286;51.274;9.542;2024-01-30T12:06:50;9.83;;;6.40;;
16352;SDS011;8286;51.274;9.542;2024-01-30T12:09:17;8.50;;;6.30;;
16352;SDS011;8286;51.274;9.542;2024-01-30T12:11:44;8.57;;;6.10;;
16352;SDS011;8286;51.274;9.542;2024-01-30T12:14:11;11.57;;;6.53;;
16352;SDS011;8286;51.274;9.542;2024-01-30T12:16:38;12.03;;;6.63;;
16352;SDS011;8286;51.274;9.542;2024-01-30T12:19:05;10.87;;;6.90;;
16352;SDS011;8286;51.274;9.542;2024-01-30T12:21:33;12.33;;;7.47;;
16352;SDS011;8286;51.274;9.542;2024-01-30T12:24:00;14.17;;;7.60;;
16352;SDS011;8286;51.274;9.542;2024-01-30T12:26:26;9.53;;;7.10;;
16352;SDS011;8286;51.274;9.542;2024-01-30T12:28:54;11.60;;;7.00;;
16352;SDS011;8286;51.274;9.542;2024-01-30T12:31:25;12.10;;;6.80;;
16352;SDS011;8286;51.274;9.542;2024-01-30T12:33:52;11.30;;;7.10;;
16352;SDS011;8286;51.274;9.542;2024-01-30T12:36:20;22.00;;;7.80;;
16352;SDS011;8286;51.274;9.542;2024-01-30T12:38:47;12.40;;;9.03;;
16352;SDS011;8286;51.274;9.542;2024-01-30T12:41:13;10.80;;;7.37;;
16352;SDS011;8286;51.274;9.542;2024-01-30T12:43:40;13.13;;;7.77;;
16352;SDS011;8286;51.274;9.542;2024-01-30T12:46:06;12.90;;;8.13;;
16352;SDS011;8286;51.274;9.542;2024-01-30T12:48:33;10.73;;;7.57;;
16352;SDS011;8286;51.274;9.542;2024-01-30T12:50:59;12.93;;;7.57;;
16352;SDS011;8286;51.274;9.542;2024-01-30T12:53:27;12.60;;;7.93;;
16352;SDS011;8286;51.274;9.542;2024-01-30T12:55:54;11.97;;;7.13;;
16352;SDS011;8286;51.274;9.542;2024-01-30T12:58:20;11.17;;;7.87;;
16352;SDS011;8286;51.274;9.542;2024-01-30T13:00:47;11.03;;;7.60;;
16352;SDS011;8286;51.274;9.542;2024-01-30T13:03:13;17.90;;;7.90;;
16352;SDS011;8286;51.274;9.542;2024-01-30T13:05:40;14.07;;;8.17;;
16352;SDS011;8286;51.274;9.542;2024-01-30T13:08:06;10.43;;;6.90;;
16352;SDS011;8286;51.274;9.542;2024-01-30T13:10:34;10.40;;;7.80;;
16352;SDS011;8286;51.274;9.542;2024-01-30T13:13:01;10.47;;;7.10;;
16352;SDS011;8286;51.274;9.542;2024-01-30T13:15:27;10.73;;;7.53;;
16352;SDS011;8286;51.274;9.542;2024-01-30T13:17:54;11.40;;;6.87;;
16352;SDS011;8286;51.274;9.542;2024-01-30T13:20:20;12.83;;;7.80;;
16352;SDS011;8286;51.274;9.542;2024-01-30T13:22:47;12.47;;;7.50;;
16352;SDS011;8286;51.274;9.542;2024-01-30T13:25:14;11.53;;;7.70;;
16352;SDS011;8286;51.274;9.542;2024-01-30T13:27:42;9.57;;;7.03;;
16352;SDS011;8286;51.274;9.542;2024-01-30T13:30:09;11.13;;;6.23;;
16352;SDS011;8286;51.274;9.542;2024-01-30T13:32:36;11.17;;;6.23;;
16352;SDS011;8286;51.274;9.542;2024-01-30T13:35:03;9.40;;;6.23;;
16352;SDS011;8286;51.274;9.542;2024-01-30T13:37:30;8.97;;;6.03;;
16352;SDS011;8286;51.274;9.542;2024-01-30T13:39:57;10.83;;;6.17;;
16352;SDS011;8286;51.274;9.542;2024-01-30T13:42:23;11.73;;;6.80;;
16352;SDS011;8286;51.274;9.542;2024-01-30T13:44:51;9.47;;;5.67;;
16352;SDS011;8286;51.274;9.542;2024-01-30T13:47:18;7.87;;;5.80;;
16352;SDS011;8286;51.274;9.542;2024-01-30T13:49:46;7.70;;;5.33;;
16352;SDS011;8286;51.274;9.542;2024-01-30T13:52:13;10.30;;;6.23;;
16352;SDS011;8286;51.274;9.542;2024-01-30T13:54:39;8.30;;;5.40;;
16352;SDS011;8286;51.274;9.542;2024-01-30T13:57:06;8.40;;;5.37;;
16352;SDS011;8286;51.274;9.542;2024-01-30T13:59:33;10.20;;;6.23;;
16352;SDS011;8286;51.274;9.542;2024-01-30T14:02:01;7.77;;;5.47;;
16352;SDS011;8286;51.274;9.542;2024-01-30T14:04:28;8.20;;;5.87;;
16352;SDS011;8286;51.274;9.542;2024-01-30T14:06:54;9.93;;;5.37;;
16352;SDS011;8286;51.274;9.542;2024-01-30T14:09:21;13.27;;;6.50;;
16352;SDS011;8286;51.274;9.542;2024-01-30T14:11:47;10.37;;;6.33;;
16352;SDS011;8286;51.274;9.542;2024-01-30T14:14:14;9.30;;;6.30;;
16352;SDS011;8286;51.274;9.542;2024-01-30T14:16:40;8.73;;;6.17;;
16352;SDS011;8286;51.274;9.542;2024-01-30T14:19:08;9.37;;;6.77;;
16352;SDS011;8286;51.274;9.542;2024-01-30T14:21:36;10.07;;;6.80;;
16352;SDS011;8286;51.274;9.542;2024-01-30T14:24:03;13.13;;;6.33;;
16352;SDS011;8286;51.274;9.542;2024-01-30T14:26:30;7.17;;;5.27;;
16352;SDS011;8286;51.274;9.542;2024-01-30T14:28:57;11.73;;;6.50;;
16352;SDS011;8286;51.274;9.542;2024-01-30T14:31:23;9.60;;;6.27;;
16352;SDS011;8286;51.274;9.542;2024-01-30T14:33:50;8.33;;;5.27;;
16352;SDS011;8286;51.274;9.542;2024-01-30T14:36:18;7.13;;;5.20;;
16352;SDS011;8286;51.274;9.542;2024-01-30T14:38:45;13.17;;;5.90;;
16352;SDS011;8286;51.274;9.542;2024-01-30T14:41:12;9.07;;;5.60;;
16352;SDS011;8286;51.274;9.542;2024-01-30T14:43:38;11.67;;;6.30;;
16352;SDS011;8286;51.274;9.542;2024-01-30T14:46:05;10.93;;;6.10;;
16352;SDS011;8286;51.274;9.542;2024-01-30T14:48:32;7.87;;;5.40;;
16352;SDS011;8286;51.274;9.542;2024-01-30T14:50:59;10.37;;;5.67;;
16352;SDS011;8286;51.274;9.542;2024-01-30T14:53:26;7.33;;;5.83;;
16352;SDS011;8286;51.274;9.542;2024-01-30T14:55:53;7.83;;;5.07;;